Tiempo atmosférico en la estación meteorológica de Alcázar Del Rey, Cuenca (875 m.)



Fecha
DESCASC
Temp. máxima en grados centígrados (hora)
DESCASC
Temp. mínima en grados centígrados (hora)
DESCASC
Temp. media en grados centígrados
DESCASC
Racha de viento máxima en m/sg (hora)
DESCASC
Velocidad máxima media en intervalos de 10 minutos(hora)
DESCASC
Precipitaciones diarias en mm
DESCASC
Precipitaciones de 00:00 a 06:00 en mm
DESCASC
Precipitaciones de 06:00 a 12:00 en mm
DESCASC
Precipitaciones de 12:00 a 18:00 en mm
DESCASC
Precipitaciones de 18:00 a 24:00 en mm
DESCASC
24-01-2021 9.9 (01:20) 5.4 (09:00) 7.6 16.39 (00:50) 8.61 (00:40) 0.4 0.4 0 0 0
23-01-2021 8.6 (23:59) 2.3 (04:40) 5.5 15 (13:40) 8.61 (13:50) 6.8 0 0 2 4.8
22-01-2021 8.7 (05:20) 3.3 (23:40) 6 23.61 (07:00) 11.39 (07:30) 13 6.8 6 0.2 0
21-01-2021 8.2 (15:00) 3.8 (00:00) 6 13.33 (15:20) 7.22 (16:50) 6.2 1 0.8 0.2 4.2
20-01-2021 4.9 (20:30) -3.8 (-00:0) 0.6 11.39 (13:00) 7.22 (12:20) 5.4 0 4.4 0 1
19-01-2021 7.5 (16:20) -9.3 (-00:0) -0.9 2.22 (13:50) 1.11 (13:40) 0 0 0 0 0
18-01-2021 9.4 (15:30) -6.1 (-00:0) 1.6 3.89 (04:30) 2.5 (07:00) 0 0 0 0 0
17-01-2021 7.4 (15:30) -8.8 (-00:0) -0.7 5.56 (12:10) 3.89 (12:10) 0 0 0 0 0
16-01-2021 9.6 (16:30) -9.8 (-00:0) -0.1 6.67 (11:50) 4.17 (11:50) 0 0 0 0 0
15-01-2021 5.1 (15:50) -4 (-00:0) 0.5 8.06 (10:40) 4.17 (10:40) 0 0 0 0 0
14-01-2021 6.6 (15:40) -6.2 (01:10) 0.2 6.67 (22:00) 3.33 (21:50) 0 0 0 0 0
13-01-2021 6.3 (15:40) -13.8 (-00:0) -3.8 6.67 (10:00) 4.17 (10:00) 0 0 0 0 0
12-01-2021 2.8 (16:20) -12.3 (-00:0) -4.8 4.72 (10:30) 3.61 (10:30) -- -- -- -- 0
11-01-2021 0.2 (16:40) -9.3 (-00:0) -4.6 8.89 (11:40) 5 (10:40) -- -- -- -- --
10-01-2021 1.3 (15:20) -4.8 (08:40) -1.8 6.39 (23:20) 3.33 (22:20) -- -- -- -- --
09-01-2021 1.3 (14:40) -1.2 (-00:0) 0 10.56 (13:00) 6.39 (13:00) 13.4 0 1.4 11 1
08-01-2021 0.4 (17:10) -3.4 (-00:0) -1.5 9.72 (18:40) 5 (18:40) 5.6 0 0 4.6 1
07-01-2021 0.2 (01:50) -2.7 (-00:0) -1.3 7.78 (02:10) 3.89 (02:00) 5 0 0.2 4.6 0.2
06-01-2021 4.4 (15:10) -5.2 (-00:0) -0.4 5 (11:40) 3.61 (11:40) 0 0 0 0 0
05-01-2021 4.4 (15:40) -6.6 (-00:0) -1.1 3.06 (16:00) 1.67 (06:50) 0 0 0 0 0
04-01-2021 4.2 (16:00) -3.8 (-00:0) 0.2 8.89 (12:30) 4.72 (12:30) 0 0 0 0 0
03-01-2021 4.6 (15:30) -4.1 (-00:0) 0.3 7.22 (23:50) 4.17 (14:00) 0 0 0 0 0
02-01-2021 2.4 (14:20) -5 (-00:0) -1.3 11.94 (12:50) 8.61 (10:30) 1.8 0 1.2 0.6 0
01-01-2021 4.9 (15:00) -3 (-00:0) 1 11.39 (21:40) 7.22 (16:30) 4 2.8 1.2 0 0
31-12-2020 5.5 (15:20) -4.7 (-00:0) 0.4 9.17 (23:59) 5.28 (23:59) 0.6 0 0 0 0.6
30-12-2020 5.9 (16:50) -2.9 (-00:0) 1.5 6.11 (00:10) 3.33 (00:10) 0 0 0 0 0
29-12-2020 5.3 (15:40) 0.2 (00:00) 2.8 12.78 (15:40) 7.22 (15:40) 0.2 0 0 0.2 0
28-12-2020 7.5 (16:00) 1.5 (00:00) 4.5 18.61 (07:00) 11.11 (07:00) 4 0.8 3.2 0 0
27-12-2020 6.4 (15:50) -4.5 (-00:0) 1 18.06 (23:59) 10.83 (23:50) 0 0 0 0 0
26-12-2020 6.3 (15:50) -3.5 (-00:0) 1.4 11.11 (11:50) 6.39 (12:00) 0 0 0 0 0

Gráficas

Temp. máximas Temp. mínimas Temp. medias Precipitaciones Rachas de viento máximas Velocidades máximas media en intervalos de 10 minutos

Datos horarios

Fecha y hora oficial Temperatura (ºC) Velocidad del viento (km/h) Dirección del viento Racha (km/h) Dirección de racha Precipitación (mm) Presión (hPa) Tendencia (hPa) Humedad (%)
2021-01-24 23:00:00 6 14 Oeste 33 Sudoeste 0 -- -- 89
2021-01-24 22:00:00 5.9 9 Oeste 27 Oeste 0 -- -- 89
2021-01-24 21:00:00 6 12 Oeste 30 Oeste 0 -- -- 87
2021-01-24 20:00:00 6.4 10 Oeste 29 Oeste 0 -- -- 87
2021-01-24 19:00:00 6.9 10 Oeste 26 Oeste 0 -- -- 85
2021-01-24 18:00:00 8.3 9 Sudoeste 32 Oeste 0 -- -- 75
2021-01-24 17:00:00 9 18 Oeste 37 Oeste 0 -- -- 72
2021-01-24 16:00:00 9.4 14 Oeste 31 Noroeste 0 -- -- 71
2021-01-24 15:00:00 9.8 21 Oeste 37 Oeste 0 -- -- 69
2021-01-24 14:00:00 9.3 19 Oeste 38 Noroeste 0 -- -- 72
2021-01-24 13:00:00 9 12 Oeste 28 Oeste 0 -- -- 81
2021-01-24 12:00:00 8.1 11 Oeste 24 Oeste 0 -- -- 86
2021-01-24 11:00:00 7.2 12 Oeste 28 Oeste 0 -- -- 89
2021-01-24 10:00:00 6.2 14 Oeste 39 Oeste 0 -- -- 90
2021-01-24 09:00:00 5.4 22 Oeste 37 Noroeste 0 -- -- 90
2021-01-24 08:00:00 5.7 17 Oeste 42 Oeste 0 -- -- 94
2021-01-24 07:00:00 6.3 28 Oeste 45 Oeste 0 -- -- 94
2021-01-24 06:00:00 7.2 23 Oeste 48 Oeste 0 -- -- 94
2021-01-24 05:00:00 7.9 23 Oeste 51 Oeste 0 -- -- 92
2021-01-24 04:00:00 8.9 19 Oeste 51 Oeste 0 -- -- 92
2021-01-24 03:00:00 9.5 27 Oeste 50 Oeste 0.2 -- -- 94
2021-01-24 02:00:00 9.8 24 Oeste 55 Oeste 0 -- -- 93
2021-01-24 01:00:00 9.7 26 Oeste 59 Oeste 0.2 -- -- 96
2021-01-24 00:00:00 8.6 19 Sudoeste 46 Sudoeste 1.8 -- -- 98
2021-01-23 23:00:00 7.5 22 Sudoeste 41 Sudoeste 1.2 -- -- 98
2021-01-23 22:00:00 7 23 Sudoeste 46 Sudoeste 0.4 -- -- 97
2021-01-23 21:00:00 6.5 20 Sudoeste 46 Sudoeste 0.6 -- -- 97
2021-01-23 20:00:00 6.2 23 Sudoeste 48 Sudoeste 0 -- -- 97
2021-01-23 19:00:00 6.2 25 Sudoeste 45 Sudoeste 0.8 -- -- 96
2021-01-23 18:00:00 6.2 24 Sudoeste 45 Sudoeste 0.2 -- -- 96
2021-01-23 17:00:00 6 21 Sudoeste 39 Sudoeste 0.2 -- -- 96
2021-01-23 16:00:00 5.6 21 Sudoeste 41 Oeste 0.6 -- -- 95
2021-01-23 15:00:00 5.5 24 Sudoeste 42 Oeste 1 -- -- 90
2021-01-23 14:00:00 6.5 31 Sudoeste 54 Sudoeste 0 -- -- 81
2021-01-23 13:00:00 6 22 Sudoeste 42 Oeste 0 -- -- 86
2021-01-23 12:00:00 4.5 14 Sudoeste 33 Sudoeste 0 -- -- 90
2021-01-23 11:00:00 3.8 14 Sudoeste 36 Oeste 0 -- -- 90
2021-01-23 10:00:00 3.4 27 Oeste 41 Oeste 0 -- -- 89
2021-01-23 09:00:00 3.2 21 Oeste 40 Oeste 0 -- -- 91
2021-01-23 08:00:00 3.2 17 Oeste 33 Oeste 0 -- -- 93
2021-01-23 07:00:00 3.1 14 Oeste 34 Noroeste 0 -- -- 93
2021-01-23 06:00:00 2.8 19 Oeste 34 Oeste 0 -- -- 92
2021-01-23 05:00:00 2.4 10 Oeste 25 Sudoeste 0 -- -- 91
2021-01-23 04:00:00 2.8 12 Oeste 30 Sudoeste 0 -- -- 90
2021-01-23 03:00:00 2.8 16 Oeste 34 Oeste 0 -- -- 90
2021-01-23 02:00:00 3 14 Oeste 33 Sudoeste 0 -- -- 91
2021-01-23 01:00:00 3.2 15 Sudoeste 34 Sudoeste 0 -- -- 92
2021-01-23 00:00:00 3.3 16 Oeste 35 Oeste 0 -- -- 92
2021-01-22 23:00:00 3.6 15 Oeste 30 Sudoeste 0 -- -- 94
2021-01-22 22:00:00 3.4 11 Oeste 30 Noroeste 0 -- -- 94
2021-01-22 21:00:00 3.6 19 Oeste 38 Oeste 0 -- -- 93
2021-01-22 20:00:00 4.3 18 Oeste 38 Oeste 0 -- -- 94
2021-01-22 19:00:00 4.8 20 Oeste 42 Oeste 0 -- -- 90
2021-01-22 18:00:00 5.4 18 Oeste 41 Oeste 0 -- -- 88
2021-01-22 17:00:00 6.2 27 Oeste 48 Oeste 0 -- -- 86
2021-01-22 16:00:00 6 24 Oeste 53 Oeste 0.2 -- -- 89
2021-01-22 15:00:00 6.3 21 Oeste 51 Oeste 0 -- -- 91
2021-01-22 14:00:00 6.4 23 Oeste 53 Oeste 0 -- -- 87
2021-01-22 13:00:00 6.4 31 Oeste 66 Oeste 0 -- -- 87
2021-01-22 12:00:00 6.2 27 Oeste 59 Oeste 0 -- -- 87
2021-01-22 11:00:00 6 35 Oeste 67 Noroeste 0 -- -- 89
2021-01-22 10:00:00 5.8 22 Oeste 61 Oeste 0 -- -- 87
2021-01-22 09:00:00 6 34 Oeste 78 Oeste 0 -- -- 88
2021-01-22 08:00:00 6.9 40 Oeste 73 Oeste 2.6 -- -- 86
2021-01-22 07:00:00 8 32 Oeste 85 Oeste 3.4 -- -- 91
2021-01-22 06:00:00 8.6 29 Sudoeste 60 Sudoeste 2.6 -- -- 96
2021-01-22 05:00:00 8.6 20 Sudoeste 46 Sudoeste 0.2 -- -- 97
2021-01-22 04:00:00 8.3 15 Sur 40 Oeste 0.2 -- -- 98
2021-01-22 03:00:00 8 12 Sudoeste 34 Sudoeste 1 -- -- 98
2021-01-22 02:00:00 7.9 15 Sur 37 Sudoeste 2.2 -- -- 98
2021-01-22 01:00:00 7.9 16 Sur 34 Sur 0.6 -- -- 98
2021-01-22 00:00:00 7.7 14 Sur 33 Sudoeste 0.6 -- -- 98
2021-01-21 23:00:00 7.5 13 Sur 35 Sudoeste 0.6 -- -- 98
2021-01-21 22:00:00 7.2 12 Sur 33 Sudoeste 0.2 -- -- 98
2021-01-21 21:00:00 7.3 17 Sudoeste 39 Sudoeste 0.4 -- -- 98
2021-01-21 20:00:00 7.1 17 Sudoeste 33 Sudoeste 1.2 -- -- 97
2021-01-21 19:00:00 7.1 17 Sudoeste 41 Sudoeste 1.2 -- -- 97
2021-01-21 18:00:00 6.7 21 Sudoeste 45 Sudoeste 0.2 -- -- 96
2021-01-21 17:00:00 6.7 23 Sudoeste 46 Sudoeste 0 -- -- 94
2021-01-21 16:00:00 7.1 17 Sudoeste 48 Sudoeste 0 -- -- 92
2021-01-21 15:00:00 8.2 19 Sudoeste 36 Sudoeste 0 -- -- 87
2021-01-21 14:00:00 6.6 12 Sudoeste 37 Sudoeste 0 -- -- 91
2021-01-21 13:00:00 5.7 14 Sudoeste 30 Sudoeste 0 -- -- 98
2021-01-21 12:00:00 5.2 16 Sudoeste 31 Sudoeste 0 -- -- 98
2021-01-21 11:00:00 4.5 11 Sur 21 Sudoeste 0 -- -- 98
2021-01-21 10:00:00 4.1 6 Sudoeste 21 Sudoeste 0.2 -- -- 99
2021-01-21 09:00:00 3.9 5 Sur 17 Sudoeste 0 -- -- 98
2021-01-21 08:00:00 4 5 Sur 26 Sudoeste 0.2 -- -- 98
2021-01-21 07:00:00 4.1 12 Sudoeste 23 Sudoeste 0.4 -- -- 99
2021-01-21 06:00:00 4 9 Sudoeste 22 Sudoeste 0.2 -- -- 98
2021-01-21 05:00:00 4.1 9 Sudoeste 23 Oeste 0 -- -- 99
2021-01-21 04:00:00 4.1 9 Sudoeste 27 Oeste 0.2 -- -- 98
2021-01-21 03:00:00 4.1 13 Sudoeste 22 Sudoeste 0.2 -- -- 99
2021-01-21 02:00:00 4 9 Sudoeste 24 Sudoeste 0.2 -- -- 99
2021-01-21 01:00:00 4.1 10 Sudoeste 22 Sudoeste 0.2 -- -- 98
2021-01-21 00:00:00 4.2 12 Sudoeste 23 Sudoeste 0 -- -- 99
2021-01-20 23:00:00 4 8 Sudoeste 26 Sudoeste 0 -- -- 98
2021-01-20 22:00:00 4.8 13 Sudoeste 34 Sudoeste 0.4 -- -- 98
2021-01-20 21:00:00 4.8 15 Sur 31 Sur 0.6 -- -- 98
2021-01-20 20:00:00 4.7 16 Sur 29 Sudoeste 0 -- -- 98
2021-01-20 19:00:00 4 15 Sur 27 Sur 0 -- -- 97
2021-01-20 18:00:00 4.3 15 Sur 26 Sur 0 -- -- 97
2021-01-20 17:00:00 4.4 14 Sur 30 Sudoeste 0 -- -- 96
2021-01-20 16:00:00 4.5 17 Sur 39 Sur 0 -- -- 95
2021-01-20 15:00:00 4.5 21 Sur 35 Sur 0 -- -- 93
2021-01-20 14:00:00 3.5 15 Sur 37 Sur 0 -- -- 95
2021-01-20 13:00:00 2.9 21 Sur 41 Sur 0 -- -- 95
2021-01-20 12:00:00 2.2 24 Sur 39 Sudeste 0.6 -- -- 93
2021-01-20 11:00:00 2.2 13 Sur 23 Sur 2.4 -- -- 93
2021-01-20 10:00:00 1.5 9 Sur 16 Sur 1.4 -- -- 91
2021-01-20 09:00:00 1.1 4 Sudoeste 11 Sur 0 -- -- 87
2021-01-20 08:00:00 1 5 Sur 14 Sur 0 -- -- 91
2021-01-20 07:00:00 0.9 2 Oeste 12 Sudeste 0 -- -- 87
2021-01-20 06:00:00 1.3 9 Sur 15 Sur 0 -- -- 90
2021-01-20 05:00:00 0.1 9 Sur 13 Sudeste 0 -- -- 94
2021-01-20 04:00:00 -1.2 5 Sur 11 Sur 0 -- -- 92
2021-01-20 03:00:00 -1.8 8 Sur 14 Sudeste 0 -- -- 95
2021-01-20 02:00:00 -3.8 0 Calma 2 Sur 0 -- -- 93
2021-01-20 01:00:00 -3.1 0 Calma 6 Sur 0 -- -- 92
2021-01-20 00:00:00 -3 0 Calma 4 Sudeste 0 -- -- 92
2021-01-19 23:00:00 -2.7 2 Sur 6 Sur 0 -- -- 91
2021-01-19 22:00:00 -1.9 0 Calma 4 Sudoeste 0 -- -- 88
2021-01-19 21:00:00 -0.4 0 Calma 5 Noroeste 0 -- -- 89
2021-01-19 20:00:00 0.1 0 Calma 3 Sur 0 -- -- 85
2021-01-19 19:00:00 1.3 2 Oeste 5 Oeste 0 -- -- 84
2021-01-19 18:00:00 2.8 0 Calma 5 Sur 0 -- -- 76
2021-01-19 17:00:00 6.5 0 Calma 6 Sur 0 -- -- 65
2021-01-19 16:00:00 7.4 0 Calma 6 Oeste 0 -- -- 64
2021-01-19 15:00:00 6.6 0 Calma 3 Sur 0 -- -- 66
2021-01-19 14:00:00 5.6 2 Sur 8 Oeste 0 -- -- 69
2021-01-19 13:00:00 2.9 0 Calma 6 Noroeste 0 -- -- 77
2021-01-19 12:00:00 -0.8 3 Nordeste 5 Nordeste 0 -- -- 83
2021-01-19 11:00:00 -4.3 0 Calma 0 Calma 0 -- -- 95
2021-01-19 10:00:00 -6.2 0 Calma -- -- 0 -- -- 95
2021-01-19 09:00:00 -8.9 0 Calma -- -- 0 -- -- 93
2021-01-19 08:00:00 -9.3 0 Calma -- -- 0 -- -- 92
2021-01-19 07:00:00 -8.7 0 Calma -- -- 0 -- -- 92
2021-01-19 06:00:00 -8.9 0 Calma -- -- 0 -- -- 92
2021-01-19 05:00:00 -8.4 0 Calma -- -- 0 -- -- 94
2021-01-19 04:00:00 -8.2 0 Calma -- -- 0 -- -- 96
2021-01-19 03:00:00 -8.1 0 Calma -- -- 0 -- -- 93
2021-01-19 02:00:00 -7.7 0 Calma -- -- 0 -- -- 92
2021-01-19 01:00:00 -6.8 0 Calma -- -- 0 -- -- 92
2021-01-19 00:00:00 -5.8 0 Calma -- -- 0 -- -- 92
2021-01-18 23:00:00 -4.7 0 Calma 2 Sudeste 0 -- -- 92
2021-01-18 22:00:00 -3.6 0 Calma 3 Nordeste 0 -- -- 90
2021-01-18 21:00:00 -2 0 Calma 2 Sur 0 -- -- 88
2021-01-18 20:00:00 -0.4 0 Calma 2 Nordeste 0 -- -- 85
2021-01-18 19:00:00 2.1 0 Calma 2 Nordeste 0 -- -- 79
2021-01-18 18:00:00 5.5 0 Calma 3 Oeste 0 -- -- 69
2021-01-18 17:00:00 8.8 0 Calma 3 Sur 0 -- -- 61
2021-01-18 16:00:00 9 0 Calma 3 Oeste 0 -- -- 60
2021-01-18 15:00:00 8 2 Este 6 Nordeste 0 -- -- 63
2021-01-18 14:00:00 8.1 3 Nordeste 5 Nordeste 0 -- -- 63
2021-01-18 13:00:00 5.9 4 Nordeste 8 Nordeste 0 -- -- 72
2021-01-18 12:00:00 4.1 6 Nordeste 10 Nordeste 0 -- -- 76
2021-01-18 11:00:00 2 6 Nordeste 10 Nordeste 0 -- -- 82
2021-01-18 10:00:00 -0.8 7 Nordeste 10 Nordeste 0 -- -- 89
2021-01-18 09:00:00 -2.4 6 Nordeste 11 Nordeste 0 -- -- 91
2021-01-18 08:00:00 -2.6 8 Nordeste 10 Nordeste 0 -- -- 91
2021-01-18 07:00:00 -3.3 9 Nordeste 11 Nordeste 0 -- -- 87
2021-01-18 06:00:00 -2.6 5 Nordeste 9 Nordeste 0 -- -- 84
2021-01-18 05:00:00 -1.9 7 Nordeste 14 Nordeste 0 -- -- 83
2021-01-18 04:00:00 -1.9 6 Nordeste 9 Nordeste 0 -- -- 82
2021-01-18 03:00:00 -2.6 5 Nordeste 10 Nordeste 0 -- -- 78
2021-01-18 02:00:00 -4.4 6 Nordeste 9 Nordeste 0 -- -- 75
2021-01-18 01:00:00 -6.1 0 Calma 6 Norte 0 -- -- 79
2021-01-18 00:00:00 -5.6 2 Norte 3 Noroeste 0 -- -- 83
2021-01-17 23:00:00 -5.2 0 Calma 2 Sudeste 0 -- -- 81
2021-01-17 22:00:00 -4.4 0 Calma 3 Sudeste 0 -- -- 81
2021-01-17 21:00:00 -2.9 0 Calma 3 Nordeste 0 -- -- 81
2021-01-17 20:00:00 -1.4 0 Calma 4 Nordeste 0 -- -- 72
2021-01-17 19:00:00 0.8 0 Calma 2 Oeste 0 -- -- 70
2021-01-17 18:00:00 4.2 0 Calma 2 Sudoeste 0 -- -- 59
2021-01-17 17:00:00 6.9 0 Calma 5 Norte 0 -- -- 52
2021-01-17 16:00:00 6.6 3 Noroeste 5 Noroeste 0 -- -- 47
2021-01-17 15:00:00 6.4 0 Calma 5 Oeste 0 -- -- 54
2021-01-17 14:00:00 5.5 0 Calma 4 Sudeste 0 -- -- 53
2021-01-17 13:00:00 2.3 2 Norte 20 Norte 0 -- -- 64
2021-01-17 12:00:00 -0.2 9 Norte 17 Norte 0 -- -- 64
2021-01-17 11:00:00 -1.2 0 Calma 9 Nordeste 0 -- -- 69
2021-01-17 10:00:00 -5 3 Norte 8 Norte 0 -- -- 83
2021-01-17 09:00:00 -7.3 0 Calma 9 Norte 0 -- -- 80
2021-01-17 08:00:00 -7.8 4 Nordeste 9 Nordeste 0 -- -- 87
2021-01-17 07:00:00 -8.3 0 Calma 5 Norte 0 -- -- 85
2021-01-17 06:00:00 -8 0 Calma 4 Noroeste 0 -- -- 85
2021-01-17 05:00:00 -7.5 0 Calma 4 Norte 0 -- -- 83
2021-01-17 04:00:00 -6.5 2 Norte 5 Noroeste 0 -- -- 78
2021-01-17 03:00:00 -6.1 0 Calma 7 Noroeste 0 -- -- 79
2021-01-17 02:00:00 -5.4 5 Norte 8 Nordeste 0 -- -- 75
2021-01-17 01:00:00 -7.1 3 Noroeste 4 Noroeste 0 -- -- 84
2021-01-17 00:00:00 -6.4 0 Calma 5 Norte 0 -- -- 81
2021-01-16 23:00:00 -5.3 2 Norte 4 Norte 0 -- -- 80
2021-01-16 22:00:00 -3.9 2 Sur 4 Sudeste 0 -- -- 81
2021-01-16 21:00:00 -2.7 0 Calma 2 Noroeste 0 -- -- 82
2021-01-16 20:00:00 -0.9 0 Calma 5 Oeste 0 -- -- 75
2021-01-16 19:00:00 1.8 0 Calma 10 Oeste 0 -- -- 67
2021-01-16 18:00:00 4.4 8 Oeste 14 Oeste 0 -- -- 59
2021-01-16 17:00:00 9.4 3 Oeste 6 Oeste 0 -- -- 45
2021-01-16 16:00:00 8.5 2 Sudoeste 6 Oeste 0 -- -- 51
2021-01-16 15:00:00 7 2 Oeste 13 Noroeste 0 -- -- 53
2021-01-16 14:00:00 5.1 8 Nordeste 21 Nordeste 0 -- -- 54
2021-01-16 13:00:00 3.9 13 Nordeste 21 Norte 0 -- -- 57
2021-01-16 12:00:00 1.9 13 Norte 24 Norte 0 -- -- 64
2021-01-16 11:00:00 1.3 12 Norte 21 Nordeste 0 -- -- 64
2021-01-16 10:00:00 -1.9 6 Norte 13 Norte 0 -- -- 72
2021-01-16 09:00:00 -5.5 7 Nordeste 10 Nordeste 0 -- -- 88
2021-01-16 08:00:00 -6.6 8 Nordeste 10 Nordeste 0 -- -- 94
2021-01-16 07:00:00 -9.8 4 Nordeste 6 Nordeste 0 -- -- 91
2021-01-16 06:00:00 -8.8 0 Calma 3 Sudeste 0 -- -- 93
2021-01-16 05:00:00 -8.5 0 Calma 3 Noroeste 0 -- -- 92
2021-01-16 04:00:00 -7 0 Calma 4 Noroeste 0 -- -- 91
2021-01-16 03:00:00 -5.7 4 Noroeste 5 Noroeste 0 -- -- 92
2021-01-16 02:00:00 -4.8 2 Noroeste 4 Oeste 0 -- -- 90
2021-01-16 01:00:00 -3.3 3 Oeste 6 Oeste 0 -- -- 91
2021-01-16 00:00:00 -3.5 0 Calma 6 Noroeste 0 -- -- 87
2021-01-15 23:00:00 -2.8 6 Noroeste 9 Noroeste 0 -- -- 90
2021-01-15 22:00:00 -3.3 0 Calma 6 Norte 0 -- -- 85
2021-01-15 21:00:00 -1.1 3 Norte 9 Norte 0 -- -- 81
2021-01-15 20:00:00 -1.4 0 Calma 6 Oeste 0 -- -- 84
2021-01-15 19:00:00 0.3 0 Calma 4 Sudoeste 0 -- -- 78
2021-01-15 18:00:00 2.8 0 Calma 14 Norte 0 -- -- 71
2021-01-15 17:00:00 4.2 8 Nordeste 21 Norte 0 -- -- 66
2021-01-15 16:00:00 5.1 10 Norte 21 Norte 0 -- -- 62
2021-01-15 15:00:00 4.3 9 Nordeste 19 Norte 0 -- -- 70
2021-01-15 14:00:00 3.3 9 Nordeste 18 Norte 0 -- -- 74
2021-01-15 13:00:00 2.9 8 Nordeste 22 Norte 0 -- -- 78
2021-01-15 12:00:00 1.1 13 Nordeste 23 Norte 0 -- -- 83
2021-01-15 11:00:00 0.1 13 Nordeste 29 Nordeste 0 -- -- 86
2021-01-15 10:00:00 -1.4 8 Nordeste 25 Nordeste 0 -- -- 92
2021-01-15 09:00:00 -2.7 13 Nordeste 22 Norte 0 -- -- 96
2021-01-15 08:00:00 -3.7 8 Nordeste 17 Norte 0 -- -- 94
2021-01-15 07:00:00 -2.8 6 Nordeste 17 Nordeste 0 -- -- 95
2021-01-15 06:00:00 -1.3 11 Nordeste 18 Norte 0 -- -- 94
2021-01-15 05:00:00 -0.5 11 Norte 19 Norte 0 -- -- 95
2021-01-15 04:00:00 -1.4 8 Nordeste 14 Nordeste 0 -- -- 93
2021-01-15 03:00:00 -1.6 6 Nordeste 18 Nordeste 0 -- -- 90
2021-01-15 02:00:00 -1.4 7 Nordeste 18 Norte 0 -- -- 87
2021-01-15 01:00:00 -0.6 9 Nordeste 18 Nordeste 0 -- -- 86
2021-01-15 00:00:00 -1 6 Nordeste 17 Nordeste 0 -- -- 80
2021-01-14 23:00:00 0 7 Nordeste 17 Nordeste 0 -- -- 72
2021-01-14 22:00:00 0.6 12 Nordeste 24 Norte 0 -- -- 67
2021-01-14 21:00:00 0.3 6 Nordeste 14 Nordeste 0 -- -- 64
2021-01-14 20:00:00 -0.1 5 Norte 10 Norte 0 -- -- 64
2021-01-14 19:00:00 0.1 4 Norte 11 Oeste 0 -- -- 67
2021-01-14 18:00:00 2.1 6 Oeste 15 Oeste 0 -- -- 59
2021-01-14 17:00:00 4.5 9 Oeste 13 Oeste 0 -- -- 56
2021-01-14 16:00:00 6.4 4 Oeste 9 Oeste 0 -- -- 52
2021-01-14 15:00:00 5.8 4 Norte 9 Noroeste 0 -- -- 47
2021-01-14 14:00:00 3.8 3 Noroeste 8 Norte 0 -- -- 55
2021-01-14 13:00:00 3.7 0 Calma 8 Nordeste 0 -- -- 54
2021-01-14 12:00:00 0.7 7 Nordeste 11 Nordeste 0 -- -- 62
2021-01-14 11:00:00 -1.4 6 Nordeste 13 Norte 0 -- -- 67
2021-01-14 10:00:00 -3.1 9 Nordeste 16 Nordeste 0 -- -- 75
2021-01-14 09:00:00 -4 9 Nordeste 15 Nordeste 0 -- -- 77
2021-01-14 08:00:00 -4.4 8 Nordeste 15 Nordeste 0 -- -- 78
2021-01-14 07:00:00 -5.6 4 Nordeste 6 Nordeste 0 -- -- 80
2021-01-14 06:00:00 -4.6 4 Norte 6 Norte 0 -- -- 82
2021-01-14 05:00:00 -4.8 4 Norte 8 Norte 0 -- -- 82
2021-01-14 04:00:00 -4.4 5 Nordeste 8 Norte 0 -- -- 83
2021-01-14 03:00:00 -4 6 Norte 9 Norte 0 -- -- 84
2021-01-14 02:00:00 -6.2 3 Nordeste 7 Norte 0 -- -- 88
2021-01-14 01:00:00 -6.1 3 Norte 6 Norte 0 -- -- 86
2021-01-14 00:00:00 -5.6 5 Norte 7 Norte 0 -- -- 89
2021-01-13 23:00:00 -5.2 2 Norte 5 Norte 0 -- -- 84
2021-01-13 22:00:00 -4.7 0 Calma 4 Nordeste 0 -- -- 83
2021-01-13 21:00:00 -3.6 2 Nordeste 3 Nordeste 0 -- -- 81
2021-01-13 20:00:00 -2.4 0 Calma 4 Noroeste 0 -- -- 81
2021-01-13 19:00:00 -0.5 3 Oeste 6 Oeste 0 -- -- 73
2021-01-13 18:00:00 1.7 3 Norte 11 Oeste 0 -- -- 68
2021-01-13 17:00:00 4.3 8 Oeste 14 Oeste 0 -- -- 57
2021-01-13 16:00:00 6.2 6 Oeste 10 Oeste 0 -- -- 51
2021-01-13 15:00:00 5.2 6 Oeste 15 Oeste 0 -- -- 53
2021-01-13 14:00:00 4.8 6 Noroeste 13 Oeste 0 -- -- 52
2021-01-13 13:00:00 2.9 0 Calma 8 Nordeste 0 -- -- 61
2021-01-13 12:00:00 -1.1 5 Nordeste 13 Nordeste 0 -- -- 72
2021-01-13 11:00:00 -4.2 10 Nordeste 23 Nordeste 0 -- -- 78
2021-01-13 10:00:00 -4.6 15 Nordeste 24 Nordeste 0 -- -- 80
2021-01-13 09:00:00 -7.1 4 Norte 13 Nordeste 0 -- -- 82
2021-01-13 08:00:00 -6.6 5 Norte 17 Nordeste 0 -- -- 84
2021-01-13 07:00:00 -6.3 6 Nordeste 18 Nordeste 0 -- -- 84
2021-01-13 06:00:00 -6 8 Nordeste 19 Nordeste 0 -- -- 84
2021-01-13 05:00:00 -7.7 6 Nordeste 15 Nordeste 0 -- -- 88
2021-01-13 04:00:00 -13 6 Norte 11 Norte 0 -- -- 91
2021-01-13 03:00:00 -13.1 2 Norte 4 Norte 0 -- -- 90
2021-01-13 02:00:00 -13 3 Sur 5 Sur 0 -- -- 89
2021-01-13 01:00:00 -13.1 0 Calma 3 Noroeste 0 -- -- 87
2021-01-13 00:00:00 -12.3 0 Calma 4 Este 0 -- -- 87
2021-01-12 23:00:00 -11.2 0 Calma 3 Noroeste 0 -- -- 88
2021-01-12 22:00:00 -10.1 0 Calma 4 Sur 0 -- -- 85
2021-01-12 21:00:00 -8.8 0 Calma 6 Norte 0 -- -- 86
2021-01-12 20:00:00 -6.9 0 Calma 0 Calma 0 -- -- 79
2021-01-12 19:00:00 -4 0 Calma 5 Oeste 0 -- -- 75
2021-01-12 18:00:00 -1.3 4 Oeste 9 Oeste 0 -- -- 67
2021-01-12 17:00:00 2.1 4 Oeste 8 Oeste 0 -- -- 58
2021-01-12 16:00:00 2.1 0 Calma 8 Oeste 0 -- -- 60
2021-01-12 15:00:00 0.8 2 Sudoeste 6 Norte 0 -- -- 62
2021-01-12 14:00:00 -0.9 3 Norte 5 Norte 0 -- -- 63
2021-01-12 13:00:00 -2 0 Calma 5 Norte -- -- -- 64
2021-01-12 12:00:00 -4.7 4 Norte 12 Norte -- -- -- 71
2021-01-12 11:00:00 -6.3 6 Norte 17 Norte -- -- -- 76
2021-01-12 10:00:00 -8.2 9 Nordeste 17 Norte -- -- -- 83
2021-01-12 09:00:00 -10.3 5 Norte 10 Nordeste -- -- -- 87
2021-01-12 08:00:00 -10.5 4 Nordeste 12 Nordeste -- -- -- 91
2021-01-12 07:00:00 -11.1 4 Nordeste 8 Nordeste -- -- -- 90
2021-01-12 06:00:00 -10.5 4 Nordeste 9 Nordeste -- -- -- 85
2021-01-12 05:00:00 -8.6 5 Nordeste 16 Nordeste -- -- -- 81
2021-01-12 04:00:00 -8.4 8 Nordeste 17 Norte -- -- -- 92
2021-01-12 03:00:00 -11.2 4 Nordeste 6 Nordeste -- -- -- 89
2021-01-12 02:00:00 -10.5 3 Noroeste 9 Norte -- -- -- 88
2021-01-12 01:00:00 -10.4 4 Nordeste 6 Nordeste -- -- -- 82
2021-01-12 00:00:00 -9.3 3 Este 8 Norte -- -- -- 79
2021-01-11 23:00:00 -6.3 4 Norte 8 Norte -- -- -- 77
2021-01-11 22:00:00 -8.4 0 Calma 5 Norte -- -- -- 82
2021-01-11 21:00:00 -6.5 3 Nordeste 6 Noroeste -- -- -- 78
2021-01-11 20:00:00 -6.3 3 Norte 5 Norte -- -- -- 77
2021-01-11 19:00:00 -5.1 2 Este 6 Norte -- -- -- 70
2021-01-11 18:00:00 -2 0 Calma 4 Nordeste -- -- -- 65
2021-01-11 17:00:00 0.2 3 Nordeste 12 Norte -- -- -- 62
2021-01-11 16:00:00 0.1 9 Norte 19 Norte -- -- -- 64
2021-01-11 15:00:00 -0.6 11 Nordeste 17 Norte -- -- -- 67
2021-01-11 14:00:00 -1.2 8 Norte 15 Norte -- -- -- 68
2021-01-11 13:00:00 -1 2 Nordeste 22 Norte -- -- -- 65
2021-01-11 12:00:00 -3.6 15 Nordeste 32 Norte 0 -- -- 72
2021-01-11 11:00:00 -5 17 Nordeste 30 Norte 0 -- -- 77
2021-01-11 10:00:00 -5.9 15 Nordeste 26 Nordeste 0 -- -- 79
2021-01-11 09:00:00 -7 12 Nordeste 19 Norte 0 -- -- 85
2021-01-11 08:00:00 -6.5 11 Nordeste 18 Nordeste 0 -- -- 84
2021-01-11 07:00:00 -6.1 8 Nordeste 21 Nordeste 0 -- -- 85
2021-01-11 06:00:00 -5.9 9 Nordeste 23 Nordeste 0 -- -- 87
2021-01-11 05:00:00 -5.5 11 Nordeste 21 Nordeste 0 -- -- 87
2021-01-11 04:00:00 -5.3 6 Este 15 Nordeste 0 -- -- 88
2021-01-11 03:00:00 -4.6 9 Nordeste 21 Nordeste 0 -- -- 87
2021-01-11 02:00:00 -4.4 10 Norte 22 Nordeste 0 -- -- 87
2021-01-11 01:00:00 -3.8 11 Nordeste 22 Nordeste 0 -- -- 87
2021-01-11 00:00:00 -2.8 10 Nordeste 23 Nordeste 0 -- -- 87
2021-01-10 23:00:00 -2.6 12 Nordeste 21 Nordeste 0 -- -- 89
2021-01-10 22:00:00 -2.4 10 Norte 18 Norte 0 -- -- 94
2021-01-10 21:00:00 -3.2 5 Nordeste 9 Nordeste 0 -- -- 93
2021-01-10 20:00:00 -3.3 3 Nordeste 7 Nordeste 0 -- -- 91
2021-01-10 19:00:00 -2.6 4 Nordeste 10 Nordeste 0 -- -- 90
2021-01-10 18:00:00 -1.6 6 Nordeste 14 Nordeste 0.2 -- -- 87
2021-01-10 17:00:00 -0.1 8 Nordeste 14 Nordeste 1 -- -- 82
2021-01-10 16:00:00 1.1 6 Nordeste 8 Norte 2 -- -- 80
2021-01-10 15:00:00 1 7 Nordeste 12 Nordeste 2.2 -- -- 82
2021-01-10 14:00:00 0.4 6 Nordeste 9 Nordeste 1.6 -- -- 83
2021-01-10 13:00:00 -1.3 7 Nordeste 12 Nordeste 1.2 -- -- 89
2021-01-10 12:00:00 -2.6 6 Nordeste 12 Nordeste 0.6 -- -- 96
2021-01-10 11:00:00 -3.8 0 Calma -- -- 0 -- -- 97
2021-01-10 10:00:00 -4.2 0 Calma -- -- 0 -- -- 97
2021-01-10 09:00:00 -4.6 0 Calma -- -- 0 -- -- 96
2021-01-10 08:00:00 -4 0 Calma -- -- 0 -- -- 97
2021-01-10 07:00:00 -2.5 0 Calma -- -- 0 -- -- 97
2021-01-10 06:00:00 -2.9 0 Calma 15 Este 0 -- -- 98
2021-01-10 05:00:00 -3.7 10 Este 16 Este 0 -- -- 97
2021-01-10 04:00:00 -4.2 6 Este 11 Este 0 -- -- 95
2021-01-10 03:00:00 -2.4 6 Este 11 Este 0 -- -- 95
2021-01-10 02:00:00 -1 4 Este 10 Este 0 -- -- 94
2021-01-10 01:00:00 -1 3 Este 6 Este 0 -- -- 96
2021-01-10 00:00:00 -1.2 6 Este 9 Este 0 -- -- 94
2021-01-09 23:00:00 0.1 7 Este 11 Sudeste 0.2 -- -- 95
2021-01-09 22:00:00 0.2 6 Sudeste 16 Sudeste 0 -- -- 95
2021-01-09 21:00:00 0.3 8 Sudeste 15 Este 0.2 -- -- 95
2021-01-09 20:00:00 0.3 9 Sudeste 24 Sudeste 0.2 -- -- 95
2021-01-09 19:00:00 0.5 13 Sudeste 24 Sudeste 0.4 -- -- 94
2021-01-09 18:00:00 0.6 12 Sudeste 27 Sudeste 1 -- -- 96
2021-01-09 17:00:00 0.9 14 Sudeste 26 Sur 1.4 -- -- 95
2021-01-09 16:00:00 1 12 Sur 31 Sur 2 -- -- 95
2021-01-09 15:00:00 1.1 16 Sudeste 35 Sudeste 2.2 -- -- 95
2021-01-09 14:00:00 1.1 22 Sudeste 37 Sudeste 2.4 -- -- 97
2021-01-09 13:00:00 0.9 23 Sudeste 38 Sudeste 2 -- -- 97
2021-01-09 12:00:00 0.5 18 Sudeste 31 Sur 1 -- -- 98
2021-01-09 11:00:00 0.2 15 Sudeste 31 Este 0.4 -- -- 98
2021-01-09 10:00:00 0 0 Calma -- -- 0 -- -- 98
2021-01-09 09:00:00 -0.1 0 Calma -- -- 0 -- -- 98
2021-01-09 08:00:00 -0.1 0 Calma -- -- 0 -- -- 98
2021-01-09 07:00:00 -0.2 0 Calma -- -- 0 -- -- 98
2021-01-09 06:00:00 -0.2 0 Calma -- -- 0 -- -- 98
2021-01-09 05:00:00 -0.3 0 Calma -- -- 0 -- -- 98
2021-01-09 04:00:00 -0.2 0 Calma -- -- 0 -- -- 98
2021-01-09 03:00:00 -0.3 0 Calma -- -- 0 -- -- 98
2021-01-09 02:00:00 -0.3 0 Calma -- -- 0 -- -- 98
2021-01-09 01:00:00 -0.4 0 Calma -- -- 0 -- -- 98
2021-01-09 00:00:00 -0.4 0 Calma -- -- 0 -- -- 98
2021-01-08 23:00:00 -0.3 0 Calma -- -- 0 -- -- 97
2021-01-08 22:00:00 -0.1 0 Calma -- -- 0.2 -- -- 97
2021-01-08 21:00:00 -0.1 0 Calma -- -- 0.2 -- -- 97
2021-01-08 20:00:00 0.1 0 Calma 21 Este 0.2 -- -- 97
2021-01-08 19:00:00 0.4 11 Este 35 Este 0.4 -- -- 96
2021-01-08 18:00:00 0.3 12 Este 23 Este 0.6 -- -- 97
2021-01-08 17:00:00 0.3 12 Este 21 Este 0.8 -- -- 97
2021-01-08 16:00:00 0.2 12 Nordeste 18 Este 0.8 -- -- 96
2021-01-08 15:00:00 -0.3 10 Nordeste 17 Nordeste 0.8 -- -- 95
2021-01-08 14:00:00 -0.6 11 Nordeste 15 Nordeste 1.2 -- -- 94
2021-01-08 13:00:00 -0.7 0 Calma -- -- 0.4 -- -- 95
2021-01-08 12:00:00 -1.3 0 Calma -- -- 0 -- -- 95
2021-01-08 11:00:00 -1.8 0 Calma -- -- 0 -- -- 96
2021-01-08 10:00:00 -2.3 0 Calma -- -- 0 -- -- 95
2021-01-08 09:00:00 -2.6 0 Calma -- -- 0 -- -- 95
2021-01-08 08:00:00 -2.6 0 Calma -- -- 0 -- -- 95
2021-01-08 07:00:00 -2.7 0 Calma -- -- 0 -- -- 95
2021-01-08 06:00:00 -3 0 Calma -- -- 0 -- -- 95
2021-01-08 05:00:00 -3.1 0 Calma -- -- 0 -- -- 95
2021-01-08 04:00:00 -3.3 0 Calma -- -- 0 -- -- 95
2021-01-08 03:00:00 -3.4 0 Calma -- -- 0 -- -- 95
2021-01-08 02:00:00 -3.3 0 Calma -- -- 0 -- -- 95
2021-01-08 01:00:00 -3.1 0 Calma -- -- 0 -- -- 96
2021-01-08 00:00:00 -2.7 0 Calma -- -- 0 -- -- 96
2021-01-07 23:00:00 -2.4 0 Calma -- -- 0 -- -- 97
2021-01-07 22:00:00 -2.1 0 Calma -- -- 0 -- -- 97
2021-01-07 21:00:00 -2.1 0 Calma -- -- 0 -- -- 96
2021-01-07 20:00:00 -1.1 0 Calma -- -- 0.2 -- -- 96
2021-01-07 19:00:00 -0.9 0 Calma -- -- 0 -- -- 96
2021-01-07 18:00:00 -0.6 0 Calma -- -- 0.2 -- -- 96
2021-01-07 17:00:00 -0.5 0 Calma -- -- 0.2 -- -- 95
2021-01-07 16:00:00 -0.5 0 Calma -- -- 0.6 -- -- 95
2021-01-07 15:00:00 -0.2 0 Calma 13 Nordeste 1.6 -- -- 94
2021-01-07 14:00:00 -0.1 7 Nordeste 15 Nordeste 1.2 -- -- 95
2021-01-07 13:00:00 -0.2 7 Norte 15 Norte 0.8 -- -- 94
2021-01-07 12:00:00 -0.5 7 Nordeste 17 Nordeste 0.2 -- -- 95
2021-01-07 11:00:00 -0.9 10 Nordeste 18 Nordeste 0 -- -- 96
2021-01-07 10:00:00 -1.3 9 Nordeste 15 Nordeste 0 -- -- 96
2021-01-07 09:00:00 -1.7 7 Nordeste 14 Nordeste 0 -- -- 96
2021-01-07 08:00:00 -1.5 6 Nordeste 12 Nordeste 0 -- -- 96
2021-01-07 07:00:00 -1.4 8 Nordeste 13 Nordeste 0 -- -- 95
2021-01-07 06:00:00 -0.7 7 Este 14 Este 0 -- -- 95
2021-01-07 05:00:00 -0.6 9 Este 16 Este 0 -- -- 95
2021-01-07 04:00:00 -0.6 12 Este 21 Sudeste 0 -- -- 94
2021-01-07 03:00:00 -0.3 7 Sudeste 28 Este 0 -- -- 89
2021-01-07 02:00:00 0.1 14 Sudeste 27 Este 0 -- -- 78
2021-01-07 01:00:00 -1.2 10 Nordeste 15 Nordeste 0 -- -- 83
2021-01-07 00:00:00 -0.4 9 Nordeste 13 Nordeste 0 -- -- 76
2021-01-06 23:00:00 0.2 6 Nordeste 13 Nordeste 0 -- -- 69
2021-01-06 22:00:00 0.9 10 Este 14 Este 0 -- -- 65
2021-01-06 21:00:00 0.3 8 Este 10 Nordeste 0 -- -- 73
2021-01-06 20:00:00 -0.5 3 Nordeste 5 Nordeste 0 -- -- 81
2021-01-06 19:00:00 0.6 3 Este 6 Este 0 -- -- 75
2021-01-06 18:00:00 2.2 0 Calma 6 Sur 0 -- -- 65
2021-01-06 17:00:00 3.5 5 Norte 12 Nordeste 0 -- -- 59
2021-01-06 16:00:00 4.2 7 Nordeste 11 Norte 0 -- -- 58
2021-01-06 15:00:00 4.2 5 Nordeste 14 Norte 0 -- -- 59
2021-01-06 14:00:00 3.3 6 Nordeste 14 Nordeste 0 -- -- 68
2021-01-06 13:00:00 2.1 9 Nordeste 17 Norte 0 -- -- 79
2021-01-06 12:00:00 -0.2 12 Nordeste 18 Nordeste 0 -- -- 82
2021-01-06 11:00:00 -1.5 13 Nordeste 17 Nordeste 0 -- -- 88
2021-01-06 10:00:00 -3.3 4 Nordeste 10 Norte 0 -- -- 92
2021-01-06 09:00:00 -5.1 5 Nordeste 13 Nordeste 0 -- -- 92
2021-01-06 08:00:00 -4.6 7 Nordeste 14 Nordeste 0 -- -- 91
2021-01-06 07:00:00 -4.8 7 Nordeste 14 Nordeste 0 -- -- 95
2021-01-06 06:00:00 -5 7 Nordeste 15 Nordeste 0 -- -- 95
2021-01-06 05:00:00 -4.2 8 Nordeste 14 Nordeste 0 -- -- 93
2021-01-06 04:00:00 -4 9 Nordeste 18 Nordeste 0 -- -- 91
2021-01-06 03:00:00 -4.4 8 Nordeste 10 Nordeste 0 -- -- 89
2021-01-06 02:00:00 -4.3 6 Nordeste 8 Este 0 -- -- 89
2021-01-06 01:00:00 -4.2 0 Calma 8 Nordeste 0 -- -- 87
2021-01-06 00:00:00 -4.6 3 Norte 4 Nordeste 0 -- -- 90
2021-01-05 23:00:00 -3.4 3 Norte 6 Norte 0 -- -- 90
2021-01-05 22:00:00 -3.8 0 Calma 3 Nordeste 0 -- -- 89
2021-01-05 21:00:00 -2.8 0 Calma 2 Sudoeste 0 -- -- 88
2021-01-05 20:00:00 -1.9 2 Sur 3 Sur 0 -- -- 84
2021-01-05 19:00:00 -0.3 2 Sur 4 Oeste 0 -- -- 79
2021-01-05 18:00:00 1.8 3 Oeste 10 Noroeste 0 -- -- 71
2021-01-05 17:00:00 3.9 4 Oeste 10 Oeste 0 -- -- 65
2021-01-05 16:00:00 4.3 5 Oeste 11 Oeste 0 -- -- 64
2021-01-05 15:00:00 4.1 2 Sur 10 Oeste 0 -- -- 63
2021-01-05 14:00:00 2.8 3 Sudoeste 9 Oeste 0 -- -- 71
2021-01-05 13:00:00 2.5 0 Calma 8 Sudoeste 0 -- -- 74
2021-01-05 12:00:00 0.5 3 Sudoeste 6 Oeste 0 -- -- 83
2021-01-05 11:00:00 -2.6 2 Oeste 4 Oeste 0 -- -- 91
2021-01-05 10:00:00 -4.9 2 Oeste 3 Sudoeste 0 -- -- 94
2021-01-05 09:00:00 -6.1 0 Calma 4 Norte 0 -- -- 92
2021-01-05 08:00:00 -5.4 3 Nordeste 7 Nordeste 0 -- -- 93
2021-01-05 07:00:00 -5.3 6 Nordeste 10 Nordeste 0 -- -- 94
2021-01-05 06:00:00 -6.1 3 Norte 6 Norte 0 -- -- 92
2021-01-05 05:00:00 -5.4 0 Calma 4 Sudoeste 0 -- -- 92
2021-01-05 04:00:00 -4.9 2 Sur 4 Sur 0 -- -- 90
2021-01-05 03:00:00 -4.2 0 Calma 3 Nordeste 0 -- -- 89
2021-01-05 02:00:00 -3.1 0 Calma 6 Sudeste 0 -- -- 88
2021-01-05 01:00:00 -2.6 2 Nordeste 8 Oeste 0 -- -- 91
2021-01-05 00:00:00 -2.3 4 Sudoeste 10 Sudoeste 0 -- -- 92
2021-01-04 23:00:00 -2 3 Oeste 9 Oeste 0 -- -- 91
2021-01-04 22:00:00 -1.7 2 Oeste 6 Noroeste 0 -- -- 87
2021-01-04 21:00:00 -0.7 5 Oeste 9 Oeste 0 -- -- 84
2021-01-04 20:00:00 -0.3 3 Sudoeste 6 Oeste 0 -- -- 82
2021-01-04 19:00:00 0.6 0 Calma 10 Oeste 0 -- -- 75
2021-01-04 18:00:00 1.5 0 Calma 19 Oeste 0 -- -- 71
2021-01-04 17:00:00 3.2 11 Oeste 26 Noroeste 0 -- -- 64
2021-01-04 16:00:00 4.2 13 Oeste 28 Noroeste 0 -- -- 63
2021-01-04 15:00:00 4 10 Oeste 26 Noroeste 0 -- -- 65
2021-01-04 14:00:00 3.1 11 Oeste 26 Oeste 0 -- -- 66
2021-01-04 13:00:00 3 15 Oeste 32 Noroeste 0 -- -- 69
2021-01-04 12:00:00 2.3 10 Oeste 21 Sudoeste 0 -- -- 75
2021-01-04 11:00:00 0.2 5 Oeste 14 Oeste 0 -- -- 89
2021-01-04 10:00:00 -1.9 4 Sur 8 Sur 0 -- -- 95
2021-01-04 09:00:00 -3.8 3 Sur 6 Sudoeste 0 -- -- 94
2021-01-04 08:00:00 -3.1 2 Sur 9 Sur 0 -- -- 93
2021-01-04 07:00:00 -2.4 3 Sudoeste 9 Sur 0 -- -- 92
2021-01-04 06:00:00 -1.7 4 Sur 9 Sur 0 -- -- 91
2021-01-04 05:00:00 -1.4 4 Sudoeste 9 Oeste 0 -- -- 92
2021-01-04 04:00:00 -1.7 4 Sur 9 Sur 0 -- -- 92
2021-01-04 03:00:00 -2.2 3 Sur 9 Sudoeste 0 -- -- 91
2021-01-04 02:00:00 -1.7 4 Sudoeste 14 Oeste 0 -- -- 90
2021-01-04 01:00:00 -1.1 5 Oeste 22 Oeste 0 -- -- 86
2021-01-04 00:00:00 -0.2 13 Sudoeste 26 Oeste 0 -- -- 84
2021-01-03 23:00:00 -0.4 6 Sudoeste 16 Sudoeste 0 -- -- 84
2021-01-03 22:00:00 0.4 6 Oeste 19 Oeste 0 -- -- 78
2021-01-03 21:00:00 1 4 Oeste 11 Noroeste 0 -- -- 77
2021-01-03 20:00:00 0.7 3 Oeste 10 Oeste 0 -- -- 76
2021-01-03 19:00:00 1.7 5 Oeste 15 Sudoeste 0 -- -- 69
2021-01-03 18:00:00 2.9 8 Oeste 17 Sudoeste 0 -- -- 63
2021-01-03 17:00:00 4.5 7 Oeste 22 Oeste 0 -- -- 63
2021-01-03 16:00:00 4.4 10 Oeste 25 Noroeste 0 -- -- 64
2021-01-03 15:00:00 4.1 11 Oeste 24 Noroeste 0 -- -- 66
2021-01-03 14:00:00 3.3 15 Noroeste 25 Noroeste 0 -- -- 69
2021-01-03 13:00:00 2.6 11 Oeste 21 Oeste 0 -- -- 71
2021-01-03 12:00:00 1.3 9 Oeste 19 Oeste 0 -- -- 74
2021-01-03 11:00:00 -0.2 3 Oeste 9 Oeste 0 -- -- 78
2021-01-03 10:00:00 -2.5 0 Calma 15 Noroeste 0 -- -- 83
2021-01-03 09:00:00 -4 3 Oeste 8 Oeste 0 -- -- 84
2021-01-03 08:00:00 -4 4 Sudoeste 9 Sudoeste 0 -- -- 82
2021-01-03 07:00:00 -4.1 3 Sur 19 Noroeste 0 -- -- 83
2021-01-03 06:00:00 -2.1 14 Noroeste 24 Noroeste 0 -- -- 76
2021-01-03 05:00:00 -2.7 14 Noroeste 21 Noroeste 0 -- -- 78
2021-01-03 04:00:00 -3.1 2 Norte 17 Noroeste 0 -- -- 78
2021-01-03 03:00:00 -1.9 12 Noroeste 22 Noroeste 0 -- -- 72
2021-01-03 02:00:00 -1.7 6 Norte 16 Noroeste 0 -- -- 72
2021-01-03 01:00:00 -2.2 5 Noroeste 20 Noroeste 0 -- -- 75
2021-01-03 00:00:00 -1.8 8 Noroeste 19 Noroeste 0 -- -- 74
2021-01-02 23:00:00 -1.4 13 Noroeste 27 Noroeste 0 -- -- 75
2021-01-02 22:00:00 -1.1 15 Noroeste 26 Noroeste 0 -- -- 77
2021-01-02 21:00:00 -1.4 8 Noroeste 21 Noroeste 0 -- -- 80
2021-01-02 20:00:00 -0.8 9 Noroeste 27 Oeste 0 -- -- 77
2021-01-02 19:00:00 0.3 18 Noroeste 41 Noroeste 0 -- -- 72
2021-01-02 18:00:00 0.8 15 Noroeste 35 Noroeste 0 -- -- 72
2021-01-02 17:00:00 1.5 21 Noroeste 37 Noroeste 0 -- -- 70
2021-01-02 16:00:00 2.1 17 Noroeste 32 Noroeste 0 -- -- 69
2021-01-02 15:00:00 1.9 16 Noroeste 43 Oeste 0 -- -- 68
2021-01-02 14:00:00 2.1 26 Noroeste 42 Noroeste 0 -- -- 67